sensor_id;sensor_type;location;lat;lon;timestamp;temperature;humidity
17795;DHT22;9021;50.882;4.326;2023-02-23T00:01:27;10.90;99.90
17795;DHT22;9021;50.882;4.326;2023-02-23T00:03:57;10.80;99.90
17795;DHT22;9021;50.882;4.326;2023-02-23T00:06:25;10.70;99.90
17795;DHT22;9021;50.882;4.326;2023-02-23T00:08:51;10.80;99.90
17795;DHT22;9021;50.882;4.326;2023-02-23T00:11:17;10.80;99.90
17795;DHT22;9021;50.882;4.326;2023-02-23T00:13:45;10.80;99.90
17795;DHT22;9021;50.882;4.326;2023-02-23T00:16:17;10.80;99.90
17795;DHT22;9021;50.882;4.326;2023-02-23T00:18:51;10.80;99.90
17795;DHT22;9021;50.882;4.326;2023-02-23T00:21:29;10.70;99.90
17795;DHT22;9021;50.882;4.326;2023-02-23T00:23:58;10.70;99.90
17795;DHT22;9021;50.882;4.326;2023-02-23T00:26:26;10.70;99.90
17795;DHT22;9021;50.882;4.326;2023-02-23T00:28:55;10.70;99.90
17795;DHT22;9021;50.882;4.326;2023-02-23T00:31:22;10.70;99.90
17795;DHT22;9021;50.882;4.326;2023-02-23T00:33:50;10.70;99.90
17795;DHT22;9021;50.882;4.326;2023-02-23T00:36:19;10.80;99.90
17795;DHT22;9021;50.882;4.326;2023-02-23T00:38:45;10.80;99.90
17795;DHT22;9021;50.882;4.326;2023-02-23T00:41:13;10.90;99.90
17795;DHT22;9021;50.882;4.326;2023-02-23T00:43:41;10.90;99.90
17795;DHT22;9021;50.882;4.326;2023-02-23T00:46:17;10.90;99.90
17795;DHT22;9021;50.882;4.326;2023-02-23T00:48:47;11.00;99.90
17795;DHT22;9021;50.882;4.326;2023-02-23T00:51:13;10.90;99.90
17795;DHT22;9021;50.882;4.326;2023-02-23T00:53:40;10.90;99.90
17795;DHT22;9021;50.882;4.326;2023-02-23T00:56:08;10.90;99.90
17795;DHT22;9021;50.882;4.326;2023-02-23T00:58:34;10.80;99.90
17795;DHT22;9021;50.882;4.326;2023-02-23T01:01:00;10.80;99.90
17795;DHT22;9021;50.882;4.326;2023-02-23T01:03:26;10.90;99.90
17795;DHT22;9021;50.882;4.326;2023-02-23T01:05:52;10.90;99.90
17795;DHT22;9021;50.882;4.326;2023-02-23T01:08:20;10.90;99.90
17795;DHT22;9021;50.882;4.326;2023-02-23T01:10:46;11.00;99.90
17795;DHT22;9021;50.882;4.326;2023-02-23T01:13:22;10.90;99.90
17795;DHT22;9021;50.882;4.326;2023-02-23T01:15:48;10.80;99.90
17795;DHT22;9021;50.882;4.326;2023-02-23T01:18:15;10.80;99.90
17795;DHT22;9021;50.882;4.326;2023-02-23T01:20:42;10.70;99.90
17795;DHT22;9021;50.882;4.326;2023-02-23T01:23:10;10.90;99.90
17795;DHT22;9021;50.882;4.326;2023-02-23T01:25:37;10.90;99.90
17795;DHT22;9021;50.882;4.326;2023-02-23T01:28:03;11.00;99.90
17795;DHT22;9021;50.882;4.326;2023-02-23T01:30:29;10.80;99.90
17795;DHT22;9021;50.882;4.326;2023-02-23T01:32:55;10.80;99.90
17795;DHT22;9021;50.882;4.326;2023-02-23T01:35:21;10.70;99.90
17795;DHT22;9021;50.882;4.326;2023-02-23T01:37:46;10.70;99.90
17795;DHT22;9021;50.882;4.326;2023-02-23T01:40:24;10.80;99.90
17795;DHT22;9021;50.882;4.326;2023-02-23T01:43:17;10.80;99.90
17795;DHT22;9021;50.882;4.326;2023-02-23T01:45:44;10.80;99.90
17795;DHT22;9021;50.882;4.326;2023-02-23T01:48:14;10.70;99.90
17795;DHT22;9021;50.882;4.326;2023-02-23T01:53:21;10.70;99.90
17795;DHT22;9021;50.882;4.326;2023-02-23T01:55:53;10.70;99.90
17795;DHT22;9021;50.882;4.326;2023-02-23T01:58:22;10.80;99.90
17795;DHT22;9021;50.882;4.326;2023-02-23T02:00:57;11.00;99.90
17795;DHT22;9021;50.882;4.326;2023-02-23T02:03:34;10.70;99.90
17795;DHT22;9021;50.882;4.326;2023-02-23T02:06:02;10.80;99.90
17795;DHT22;9021;50.882;4.326;2023-02-23T02:08:32;10.90;99.90
17795;DHT22;9021;50.882;4.326;2023-02-23T02:10:58;10.90;99.90
17795;DHT22;9021;50.882;4.326;2023-02-23T02:13:29;10.90;99.90
17795;DHT22;9021;50.882;4.326;2023-02-23T02:18:52;10.80;99.90
17795;DHT22;9021;50.882;4.326;2023-02-23T02:29:31;10.70;99.90
17795;DHT22;9021;50.882;4.326;2023-02-23T02:38:02;10.70;99.90
17795;DHT22;9021;50.882;4.326;2023-02-23T02:41:01;10.70;99.90
17795;DHT22;9021;50.882;4.326;2023-02-23T02:46:35;10.80;99.90
17795;DHT22;9021;50.882;4.326;2023-02-23T02:49:12;10.60;99.90
17795;DHT22;9021;50.882;4.326;2023-02-23T02:54:10;10.70;99.90
17795;DHT22;9021;50.882;4.326;2023-02-23T02:56:42;10.70;99.90
17795;DHT22;9021;50.882;4.326;2023-02-23T02:59:15;10.70;99.90
17795;DHT22;9021;50.882;4.326;2023-02-23T03:02:01;10.60;99.90
17795;DHT22;9021;50.882;4.326;2023-02-23T03:04:45;10.70;99.90
17795;DHT22;9021;50.882;4.326;2023-02-23T03:07:42;10.80;99.90
17795;DHT22;9021;50.882;4.326;2023-02-23T03:10:52;10.70;99.90
17795;DHT22;9021;50.882;4.326;2023-02-23T03:17:45;10.60;99.90
17795;DHT22;9021;50.882;4.326;2023-02-23T03:20:04;10.50;99.90
17795;DHT22;9021;50.882;4.326;2023-02-23T03:22:57;10.60;99.90
17795;DHT22;9021;50.882;4.326;2023-02-23T03:28:58;10.70;99.90
17795;DHT22;9021;50.882;4.326;2023-02-23T03:32:01;10.50;99.90
17795;DHT22;9021;50.882;4.326;2023-02-23T03:37:47;10.60;99.90
17795;DHT22;9021;50.882;4.326;2023-02-23T03:40:36;10.50;99.90
17795;DHT22;9021;50.882;4.326;2023-02-23T03:43:29;10.50;99.90
17795;DHT22;9021;50.882;4.326;2023-02-23T03:46:15;10.60;99.90
17795;DHT22;9021;50.882;4.326;2023-02-23T03:49:02;10.60;99.90
17795;DHT22;9021;50.882;4.326;2023-02-23T03:51:52;10.70;99.90
17795;DHT22;9021;50.882;4.326;2023-02-23T03:54:44;10.60;99.90
17795;DHT22;9021;50.882;4.326;2023-02-23T03:57:32;10.50;99.90
17795;DHT22;9021;50.882;4.326;2023-02-23T04:00:26;10.60;99.90
17795;DHT22;9021;50.882;4.326;2023-02-23T04:03:11;10.60;99.90
17795;DHT22;9021;50.882;4.326;2023-02-23T04:05:59;10.60;99.90
17795;DHT22;9021;50.882;4.326;2023-02-23T04:08:45;10.50;99.90
17795;DHT22;9021;50.882;4.326;2023-02-23T04:11:41;10.40;99.90
17795;DHT22;9021;50.882;4.326;2023-02-23T04:14:37;10.40;99.90
17795;DHT22;9021;50.882;4.326;2023-02-23T04:17:05;10.50;99.90
17795;DHT22;9021;50.882;4.326;2023-02-23T04:19:32;10.60;99.90
17795;DHT22;9021;50.882;4.326;2023-02-23T04:21:58;10.60;99.90
17795;DHT22;9021;50.882;4.326;2023-02-23T04:24:23;10.50;99.90
17795;DHT22;9021;50.882;4.326;2023-02-23T04:26:49;10.40;99.90
17795;DHT22;9021;50.882;4.326;2023-02-23T04:29:15;10.50;99.90
17795;DHT22;9021;50.882;4.326;2023-02-23T04:31:41;10.50;99.90
17795;DHT22;9021;50.882;4.326;2023-02-23T04:34:06;10.50;99.90
17795;DHT22;9021;50.882;4.326;2023-02-23T04:36:33;10.40;99.90
17795;DHT22;9021;50.882;4.326;2023-02-23T04:38:58;10.50;99.90
17795;DHT22;9021;50.882;4.326;2023-02-23T04:41:24;10.50;99.90
17795;DHT22;9021;50.882;4.326;2023-02-23T04:43:50;10.50;99.90
17795;DHT22;9021;50.882;4.326;2023-02-23T04:46:15;10.50;99.90
17795;DHT22;9021;50.882;4.326;2023-02-23T04:48:41;10.50;99.90
17795;DHT22;9021;50.882;4.326;2023-02-23T04:51:07;10.40;99.90
17795;DHT22;9021;50.882;4.326;2023-02-23T04:53:32;10.30;99.90
17795;DHT22;9021;50.882;4.326;2023-02-23T04:55:58;10.30;99.90
17795;DHT22;9021;50.882;4.326;2023-02-23T04:58:23;10.30;99.90
17795;DHT22;9021;50.882;4.326;2023-02-23T05:00:49;10.30;99.90
17795;DHT22;9021;50.882;4.326;2023-02-23T05:03:15;10.20;99.90
17795;DHT22;9021;50.882;4.326;2023-02-23T05:05:42;10.20;99.90
17795;DHT22;9021;50.882;4.326;2023-02-23T05:08:08;10.20;99.90
17795;DHT22;9021;50.882;4.326;2023-02-23T05:10:34;10.30;99.90
17795;DHT22;9021;50.882;4.326;2023-02-23T05:13:00;10.40;99.90
17795;DHT22;9021;50.882;4.326;2023-02-23T05:15:26;10.40;99.90
17795;DHT22;9021;50.882;4.326;2023-02-23T05:17:53;10.30;99.90
17795;DHT22;9021;50.882;4.326;2023-02-23T05:20:20;10.40;99.90
17795;DHT22;9021;50.882;4.326;2023-02-23T05:22:46;10.50;99.90
17795;DHT22;9021;50.882;4.326;2023-02-23T05:25:13;10.50;99.90
17795;DHT22;9021;50.882;4.326;2023-02-23T05:27:40;10.40;99.90
17795;DHT22;9021;50.882;4.326;2023-02-23T05:30:06;10.40;99.90
17795;DHT22;9021;50.882;4.326;2023-02-23T05:32:33;10.30;99.90
17795;DHT22;9021;50.882;4.326;2023-02-23T05:35:00;10.30;99.90
17795;DHT22;9021;50.882;4.326;2023-02-23T05:37:26;10.30;99.90
17795;DHT22;9021;50.882;4.326;2023-02-23T05:39:52;10.20;99.90
17795;DHT22;9021;50.882;4.326;2023-02-23T05:42:18;10.20;99.90
17795;DHT22;9021;50.882;4.326;2023-02-23T05:44:43;10.20;99.90
17795;DHT22;9021;50.882;4.326;2023-02-23T05:47:09;10.20;99.90
17795;DHT22;9021;50.882;4.326;2023-02-23T05:49:36;10.30;99.90
17795;DHT22;9021;50.882;4.326;2023-02-23T05:52:01;10.30;99.90
17795;DHT22;9021;50.882;4.326;2023-02-23T05:54:27;10.30;99.90
17795;DHT22;9021;50.882;4.326;2023-02-23T05:56:53;10.30;99.90
17795;DHT22;9021;50.882;4.326;2023-02-23T05:59:18;10.30;99.90
17795;DHT22;9021;50.882;4.326;2023-02-23T06:01:44;10.40;99.90
17795;DHT22;9021;50.882;4.326;2023-02-23T06:04:09;10.30;99.90
17795;DHT22;9021;50.882;4.326;2023-02-23T06:06:35;10.40;99.90
17795;DHT22;9021;50.882;4.326;2023-02-23T06:09:02;10.40;99.90
17795;DHT22;9021;50.882;4.326;2023-02-23T06:11:28;10.40;99.90
17795;DHT22;9021;50.882;4.326;2023-02-23T06:13:55;10.40;99.90
17795;DHT22;9021;50.882;4.326;2023-02-23T06:16:22;10.40;99.90
17795;DHT22;9021;50.882;4.326;2023-02-23T06:18:48;10.30;99.90
17795;DHT22;9021;50.882;4.326;2023-02-23T06:21:13;10.30;99.90
17795;DHT22;9021;50.882;4.326;2023-02-23T06:23:39;10.30;99.90
17795;DHT22;9021;50.882;4.326;2023-02-23T06:26:05;10.20;99.90
17795;DHT22;9021;50.882;4.326;2023-02-23T06:28:30;10.20;99.90
17795;DHT22;9021;50.882;4.326;2023-02-23T06:30:56;10.20;99.90
17795;DHT22;9021;50.882;4.326;2023-02-23T06:33:22;10.20;99.90
17795;DHT22;9021;50.882;4.326;2023-02-23T06:35:48;10.20;99.90
17795;DHT22;9021;50.882;4.326;2023-02-23T06:38:14;10.30;99.90
17795;DHT22;9021;50.882;4.326;2023-02-23T06:40:39;10.20;99.90
17795;DHT22;9021;50.882;4.326;2023-02-23T06:43:06;10.30;99.90
17795;DHT22;9021;50.882;4.326;2023-02-23T06:45:32;10.20;99.90
17795;DHT22;9021;50.882;4.326;2023-02-23T06:48:00;10.30;99.90
17795;DHT22;9021;50.882;4.326;2023-02-23T06:50:26;10.30;99.90
17795;DHT22;9021;50.882;4.326;2023-02-23T06:52:52;10.30;99.90
17795;DHT22;9021;50.882;4.326;2023-02-23T06:55:17;10.30;99.90
17795;DHT22;9021;50.882;4.326;2023-02-23T06:57:43;10.30;99.90
17795;DHT22;9021;50.882;4.326;2023-02-23T07:00:10;10.30;99.90
17795;DHT22;9021;50.882;4.326;2023-02-23T07:02:40;10.30;99.90
17795;DHT22;9021;50.882;4.326;2023-02-23T07:05:06;10.20;99.90
17795;DHT22;9021;50.882;4.326;2023-02-23T07:07:32;10.30;99.90
17795;DHT22;9021;50.882;4.326;2023-02-23T07:09:58;10.30;99.90
17795;DHT22;9021;50.882;4.326;2023-02-23T07:12:23;10.30;99.90
17795;DHT22;9021;50.882;4.326;2023-02-23T07:14:49;10.40;99.90
17795;DHT22;9021;50.882;4.326;2023-02-23T07:17:14;10.40;99.90
17795;DHT22;9021;50.882;4.326;2023-02-23T07:19:42;10.40;99.90
17795;DHT22;9021;50.882;4.326;2023-02-23T07:22:08;10.50;99.90
17795;DHT22;9021;50.882;4.326;2023-02-23T07:24:33;10.60;99.90
17795;DHT22;9021;50.882;4.326;2023-02-23T07:26:59;10.60;99.90
17795;DHT22;9021;50.882;4.326;2023-02-23T07:29:25;10.60;99.90
17795;DHT22;9021;50.882;4.326;2023-02-23T07:31:51;10.60;99.90
17795;DHT22;9021;50.882;4.326;2023-02-23T07:34:17;10.60;99.90
17795;DHT22;9021;50.882;4.326;2023-02-23T07:36:43;10.60;99.90
17795;DHT22;9021;50.882;4.326;2023-02-23T07:39:08;10.50;99.90
17795;DHT22;9021;50.882;4.326;2023-02-23T07:41:34;10.60;99.90
17795;DHT22;9021;50.882;4.326;2023-02-23T07:44:00;10.50;99.90
17795;DHT22;9021;50.882;4.326;2023-02-23T07:46:25;10.50;99.90
17795;DHT22;9021;50.882;4.326;2023-02-23T07:48:51;10.50;99.90
17795;DHT22;9021;50.882;4.326;2023-02-23T07:51:17;10.70;99.90
17795;DHT22;9021;50.882;4.326;2023-02-23T07:53:43;10.60;99.90
17795;DHT22;9021;50.882;4.326;2023-02-23T07:56:09;10.60;99.90
17795;DHT22;9021;50.882;4.326;2023-02-23T07:58:39;10.70;99.90
17795;DHT22;9021;50.882;4.326;2023-02-23T08:01:06;10.80;99.90
17795;DHT22;9021;50.882;4.326;2023-02-23T08:03:31;10.80;99.90
17795;DHT22;9021;50.882;4.326;2023-02-23T08:05:57;10.80;99.90
17795;DHT22;9021;50.882;4.326;2023-02-23T08:08:23;10.80;99.90
17795;DHT22;9021;50.882;4.326;2023-02-23T08:10:49;10.80;99.90
17795;DHT22;9021;50.882;4.326;2023-02-23T08:13:16;10.80;99.90
17795;DHT22;9021;50.882;4.326;2023-02-23T08:15:41;10.90;99.90
17795;DHT22;9021;50.882;4.326;2023-02-23T08:18:07;10.90;99.90
17795;DHT22;9021;50.882;4.326;2023-02-23T08:20:33;10.90;99.90
17795;DHT22;9021;50.882;4.326;2023-02-23T08:22:58;11.00;99.90
17795;DHT22;9021;50.882;4.326;2023-02-23T08:25:25;11.00;99.90
17795;DHT22;9021;50.882;4.326;2023-02-23T08:27:52;11.00;99.90
17795;DHT22;9021;50.882;4.326;2023-02-23T08:30:20;11.00;99.90
17795;DHT22;9021;50.882;4.326;2023-02-23T08:32:46;11.00;99.90
17795;DHT22;9021;50.882;4.326;2023-02-23T08:35:12;11.00;99.90
17795;DHT22;9021;50.882;4.326;2023-02-23T08:37:38;11.00;99.90
17795;DHT22;9021;50.882;4.326;2023-02-23T08:40:05;10.90;99.90
17795;DHT22;9021;50.882;4.326;2023-02-23T08:42:30;11.00;99.90
17795;DHT22;9021;50.882;4.326;2023-02-23T08:44:56;11.00;99.90
17795;DHT22;9021;50.882;4.326;2023-02-23T08:47:23;10.90;99.90
17795;DHT22;9021;50.882;4.326;2023-02-23T08:49:49;10.90;99.90
17795;DHT22;9021;50.882;4.326;2023-02-23T08:52:16;11.00;99.90
17795;DHT22;9021;50.882;4.326;2023-02-23T08:54:41;11.10;99.90
17795;DHT22;9021;50.882;4.326;2023-02-23T08:57:07;11.10;99.90
17795;DHT22;9021;50.882;4.326;2023-02-23T08:59:33;11.20;99.90
17795;DHT22;9021;50.882;4.326;2023-02-23T09:01:58;11.40;99.90
17795;DHT22;9021;50.882;4.326;2023-02-23T09:04:24;11.30;99.90
17795;DHT22;9021;50.882;4.326;2023-02-23T09:06:50;11.40;99.90
17795;DHT22;9021;50.882;4.326;2023-02-23T09:09:16;11.30;99.90
17795;DHT22;9021;50.882;4.326;2023-02-23T09:11:42;11.50;99.90
17795;DHT22;9021;50.882;4.326;2023-02-23T09:14:08;11.60;99.90
17795;DHT22;9021;50.882;4.326;2023-02-23T09:16:34;11.70;99.90
17795;DHT22;9021;50.882;4.326;2023-02-23T09:19:00;11.80;99.90
17795;DHT22;9021;50.882;4.326;2023-02-23T09:21:26;11.80;99.90
17795;DHT22;9021;50.882;4.326;2023-02-23T09:23:54;11.80;99.90
17795;DHT22;9021;50.882;4.326;2023-02-23T09:26:22;11.70;99.90
17795;DHT22;9021;50.882;4.326;2023-02-23T09:28:49;11.60;99.90
17795;DHT22;9021;50.882;4.326;2023-02-23T09:31:18;11.90;99.90
17795;DHT22;9021;50.882;4.326;2023-02-23T09:33:44;12.00;99.90
17795;DHT22;9021;50.882;4.326;2023-02-23T09:36:12;12.10;99.90
17795;DHT22;9021;50.882;4.326;2023-02-23T09:38:45;12.10;99.90
17795;DHT22;9021;50.882;4.326;2023-02-23T09:46:46;11.90;99.90
17795;DHT22;9021;50.882;4.326;2023-02-23T09:49:16;11.90;99.90
17795;DHT22;9021;50.882;4.326;2023-02-23T09:51:47;11.90;99.90
17795;DHT22;9021;50.882;4.326;2023-02-23T09:54:16;12.10;99.90
17795;DHT22;9021;50.882;4.326;2023-02-23T09:56:48;12.10;99.90
17795;DHT22;9021;50.882;4.326;2023-02-23T09:59:17;12.10;99.90
17795;DHT22;9021;50.882;4.326;2023-02-23T10:10:16;12.20;99.90
17795;DHT22;9021;50.882;4.326;2023-02-23T10:12:52;12.40;99.90
17795;DHT22;9021;50.882;4.326;2023-02-23T10:18:11;12.70;99.90
17795;DHT22;9021;50.882;4.326;2023-02-23T10:20:59;12.90;99.90
17795;DHT22;9021;50.882;4.326;2023-02-23T10:23:33;13.10;99.90
17795;DHT22;9021;50.882;4.326;2023-02-23T10:26:01;13.30;99.90
17795;DHT22;9021;50.882;4.326;2023-02-23T10:28:32;13.80;99.90
17795;DHT22;9021;50.882;4.326;2023-02-23T10:30:59;14.40;99.90
17795;DHT22;9021;50.882;4.326;2023-02-23T10:33:33;15.00;99.90
17795;DHT22;9021;50.882;4.326;2023-02-23T10:36:22;15.10;99.90
17795;DHT22;9021;50.882;4.326;2023-02-23T10:38:50;15.10;99.90
17795;DHT22;9021;50.882;4.326;2023-02-23T10:41:15;15.00;99.90
17795;DHT22;9021;50.882;4.326;2023-02-23T10:43:41;14.80;99.90
17795;DHT22;9021;50.882;4.326;2023-02-23T10:46:16;14.70;99.90
17795;DHT22;9021;50.882;4.326;2023-02-23T10:48:43;14.80;99.90
17795;DHT22;9021;50.882;4.326;2023-02-23T10:51:17;14.70;99.90
17795;DHT22;9021;50.882;4.326;2023-02-23T10:53:44;14.50;99.90
17795;DHT22;9021;50.882;4.326;2023-02-23T10:56:15;14.30;99.90
17795;DHT22;9021;50.882;4.326;2023-02-23T10:58:50;14.30;99.90
17795;DHT22;9021;50.882;4.326;2023-02-23T11:04:29;14.00;99.90
17795;DHT22;9021;50.882;4.326;2023-02-23T11:07:16;13.80;99.90
17795;DHT22;9021;50.882;4.326;2023-02-23T11:09:42;13.60;99.90
17795;DHT22;9021;50.882;4.326;2023-02-23T11:14:57;13.50;99.90
17795;DHT22;9021;50.882;4.326;2023-02-23T11:17:30;13.40;99.90
17795;DHT22;9021;50.882;4.326;2023-02-23T11:20:03;13.30;99.90
17795;DHT22;9021;50.882;4.326;2023-02-23T11:22:34;13.30;99.90
17795;DHT22;9021;50.882;4.326;2023-02-23T11:25:10;13.40;99.90
17795;DHT22;9021;50.882;4.326;2023-02-23T11:27:37;13.30;99.90
17795;DHT22;9021;50.882;4.326;2023-02-23T11:30:04;13.20;99.90
17795;DHT22;9021;50.882;4.326;2023-02-23T11:32:32;13.30;99.90
17795;DHT22;9021;50.882;4.326;2023-02-23T11:37:51;13.40;99.90
17795;DHT22;9021;50.882;4.326;2023-02-23T11:40:29;13.50;99.90
17795;DHT22;9021;50.882;4.326;2023-02-23T11:42:56;13.60;99.90
17795;DHT22;9021;50.882;4.326;2023-02-23T11:45:24;13.60;99.90
17795;DHT22;9021;50.882;4.326;2023-02-23T11:47:54;13.50;99.90
17795;DHT22;9021;50.882;4.326;2023-02-23T11:52:59;13.30;99.90
17795;DHT22;9021;50.882;4.326;2023-02-23T11:55:25;13.30;99.90
17795;DHT22;9021;50.882;4.326;2023-02-23T11:58:31;13.30;99.90
17795;DHT22;9021;50.882;4.326;2023-02-23T12:01:00;13.30;99.90
17795;DHT22;9021;50.882;4.326;2023-02-23T12:03:29;13.30;99.90
17795;DHT22;9021;50.882;4.326;2023-02-23T12:05:57;13.30;99.90
17795;DHT22;9021;50.882;4.326;2023-02-23T12:11:13;13.40;99.90
17795;DHT22;9021;50.882;4.326;2023-02-23T12:13:44;13.40;99.90
17795;DHT22;9021;50.882;4.326;2023-02-23T12:16:23;13.40;99.90
17795;DHT22;9021;50.882;4.326;2023-02-23T12:19:02;13.50;99.90
17795;DHT22;9021;50.882;4.326;2023-02-23T12:21:45;13.50;99.90
17795;DHT22;9021;50.882;4.326;2023-02-23T12:27:22;13.40;99.90
17795;DHT22;9021;50.882;4.326;2023-02-23T12:30:21;13.30;99.90
17795;DHT22;9021;50.882;4.326;2023-02-23T12:35:24;13.40;99.90
17795;DHT22;9021;50.882;4.326;2023-02-23T12:38:00;13.50;99.90
17795;DHT22;9021;50.882;4.326;2023-02-23T12:40:33;13.50;99.90
17795;DHT22;9021;50.882;4.326;2023-02-23T12:45:41;13.60;99.90
17795;DHT22;9021;50.882;4.326;2023-02-23T12:51:39;13.60;99.90
17795;DHT22;9021;50.882;4.326;2023-02-23T12:54:09;13.60;99.90
17795;DHT22;9021;50.882;4.326;2023-02-23T13:02:39;13.80;99.90
17795;DHT22;9021;50.882;4.326;2023-02-23T13:13:22;13.60;99.90
17795;DHT22;9021;50.882;4.326;2023-02-23T13:24:18;13.10;99.90
17795;DHT22;9021;50.882;4.326;2023-02-23T13:29:38;13.00;99.90
17795;DHT22;9021;50.882;4.326;2023-02-23T13:32:10;12.90;99.90
17795;DHT22;9021;50.882;4.326;2023-02-23T13:35:01;13.00;99.90
17795;DHT22;9021;50.882;4.326;2023-02-23T13:38:22;12.90;99.90
17795;DHT22;9021;50.882;4.326;2023-02-23T13:41:06;12.90;99.90
17795;DHT22;9021;50.882;4.326;2023-02-23T13:43:36;12.90;99.90
17795;DHT22;9021;50.882;4.326;2023-02-23T13:49:03;13.10;99.90
17795;DHT22;9021;50.882;4.326;2023-02-23T13:51:40;13.10;99.90
17795;DHT22;9021;50.882;4.326;2023-02-23T13:57:01;13.10;99.90
17795;DHT22;9021;50.882;4.326;2023-02-23T13:59:29;13.00;99.90
17795;DHT22;9021;50.882;4.326;2023-02-23T14:04:43;13.10;99.90
17795;DHT22;9021;50.882;4.326;2023-02-23T14:09:41;13.10;99.90
17795;DHT22;9021;50.882;4.326;2023-02-23T14:12:29;13.10;99.90
17795;DHT22;9021;50.882;4.326;2023-02-23T14:20:42;13.30;99.90
17795;DHT22;9021;50.882;4.326;2023-02-23T14:25:48;13.40;99.90
17795;DHT22;9021;50.882;4.326;2023-02-23T14:28:25;13.50;99.90
17795;DHT22;9021;50.882;4.326;2023-02-23T14:39:08;13.60;99.90
17795;DHT22;9021;50.882;4.326;2023-02-23T14:44:20;14.00;99.90
17795;DHT22;9021;50.882;4.326;2023-02-23T14:47:12;14.60;99.90
17795;DHT22;9021;50.882;4.326;2023-02-23T14:49:43;15.30;99.90
17795;DHT22;9021;50.882;4.326;2023-02-23T14:52:24;15.60;99.90
17795;DHT22;9021;50.882;4.326;2023-02-23T14:55:03;16.00;99.90
17795;DHT22;9021;50.882;4.326;2023-02-23T14:57:29;16.20;99.90
17795;DHT22;9021;50.882;4.326;2023-02-23T15:00:00;16.20;99.90
17795;DHT22;9021;50.882;4.326;2023-02-23T15:02:28;16.00;99.90
17795;DHT22;9021;50.882;4.326;2023-02-23T15:04:54;15.80;99.90
17795;DHT22;9021;50.882;4.326;2023-02-23T15:07:30;15.60;99.90
17795;DHT22;9021;50.882;4.326;2023-02-23T15:09:58;15.40;99.90
17795;DHT22;9021;50.882;4.326;2023-02-23T15:12:29;15.10;99.90
17795;DHT22;9021;50.882;4.326;2023-02-23T15:15:02;14.80;99.90
17795;DHT22;9021;50.882;4.326;2023-02-23T15:17:31;14.50;99.90
17795;DHT22;9021;50.882;4.326;2023-02-23T15:19:59;14.30;99.90
17795;DHT22;9021;50.882;4.326;2023-02-23T15:22:29;14.10;99.90
17795;DHT22;9021;50.882;4.326;2023-02-23T15:25:01;13.80;99.90
17795;DHT22;9021;50.882;4.326;2023-02-23T15:27:37;13.70;99.90
17795;DHT22;9021;50.882;4.326;2023-02-23T15:30:30;13.60;99.90
17795;DHT22;9021;50.882;4.326;2023-02-23T15:33:04;13.80;99.90
17795;DHT22;9021;50.882;4.326;2023-02-23T15:35:35;13.70;99.90
17795;DHT22;9021;50.882;4.326;2023-02-23T15:38:07;13.80;99.90
17795;DHT22;9021;50.882;4.326;2023-02-23T15:40:33;13.80;99.90
17795;DHT22;9021;50.882;4.326;2023-02-23T15:42:59;13.90;99.90
17795;DHT22;9021;50.882;4.326;2023-02-23T15:45:41;14.00;99.90
17795;DHT22;9021;50.882;4.326;2023-02-23T15:48:13;14.10;99.90
17795;DHT22;9021;50.882;4.326;2023-02-23T15:50:44;14.00;99.90
17795;DHT22;9021;50.882;4.326;2023-02-23T15:53:33;13.90;99.90
17795;DHT22;9021;50.882;4.326;2023-02-23T15:56:15;13.90;99.90
17795;DHT22;9021;50.882;4.326;2023-02-23T15:58:49;13.90;99.90
17795;DHT22;9021;50.882;4.326;2023-02-23T16:01:29;13.90;99.90
17795;DHT22;9021;50.882;4.326;2023-02-23T16:04:17;13.80;99.90
17795;DHT22;9021;50.882;4.326;2023-02-23T16:09:30;13.70;99.90
17795;DHT22;9021;50.882;4.326;2023-02-23T16:12:00;13.70;99.90
17795;DHT22;9021;50.882;4.326;2023-02-23T16:14:33;13.80;99.90
17795;DHT22;9021;50.882;4.326;2023-02-23T16:17:01;13.70;99.90
17795;DHT22;9021;50.882;4.326;2023-02-23T16:19:27;13.50;99.90
17795;DHT22;9021;50.882;4.326;2023-02-23T16:21:55;13.30;99.90
17795;DHT22;9021;50.882;4.326;2023-02-23T16:24:25;13.20;99.90
17795;DHT22;9021;50.882;4.326;2023-02-23T16:26:57;13.00;99.90
17795;DHT22;9021;50.882;4.326;2023-02-23T16:29:38;13.00;99.90
17795;DHT22;9021;50.882;4.326;2023-02-23T16:32:16;13.00;99.90
17795;DHT22;9021;50.882;4.326;2023-02-23T16:34:52;12.90;99.90
17795;DHT22;9021;50.882;4.326;2023-02-23T16:37:24;13.00;99.90
17795;DHT22;9021;50.882;4.326;2023-02-23T16:39:54;13.00;99.90
17795;DHT22;9021;50.882;4.326;2023-02-23T16:42:29;13.00;99.90
17795;DHT22;9021;50.882;4.326;2023-02-23T16:44:56;13.00;99.90
17795;DHT22;9021;50.882;4.326;2023-02-23T16:49:51;13.10;99.90
17795;DHT22;9021;50.882;4.326;2023-02-23T16:52:19;13.10;99.90
17795;DHT22;9021;50.882;4.326;2023-02-23T16:54:49;13.00;99.90
17795;DHT22;9021;50.882;4.326;2023-02-23T16:57:31;13.10;99.90
17795;DHT22;9021;50.882;4.326;2023-02-23T17:00:02;13.00;99.90
17795;DHT22;9021;50.882;4.326;2023-02-23T17:02:38;12.90;99.90
17795;DHT22;9021;50.882;4.326;2023-02-23T17:05:10;12.90;99.90
17795;DHT22;9021;50.882;4.326;2023-02-23T17:07:38;12.90;99.90
17795;DHT22;9021;50.882;4.326;2023-02-23T17:10:05;12.80;99.90
17795;DHT22;9021;50.882;4.326;2023-02-23T17:12:31;12.90;99.90
17795;DHT22;9021;50.882;4.326;2023-02-23T17:14:56;12.70;99.90
17795;DHT22;9021;50.882;4.326;2023-02-23T17:17:22;12.60;99.90
17795;DHT22;9021;50.882;4.326;2023-02-23T17:19:48;12.70;99.90
17795;DHT22;9021;50.882;4.326;2023-02-23T17:22:13;12.50;99.90
17795;DHT22;9021;50.882;4.326;2023-02-23T17:24:40;12.40;99.90
17795;DHT22;9021;50.882;4.326;2023-02-23T17:27:06;12.60;99.90
17795;DHT22;9021;50.882;4.326;2023-02-23T17:29:31;12.40;99.90
17795;DHT22;9021;50.882;4.326;2023-02-23T17:31:57;12.40;99.90
17795;DHT22;9021;50.882;4.326;2023-02-23T17:34:24;12.30;99.90
17795;DHT22;9021;50.882;4.326;2023-02-23T17:36:51;12.30;99.90
17795;DHT22;9021;50.882;4.326;2023-02-23T17:39:16;12.20;99.90
17795;DHT22;9021;50.882;4.326;2023-02-23T17:41:42;12.20;99.90
17795;DHT22;9021;50.882;4.326;2023-02-23T17:44:08;12.20;99.90
17795;DHT22;9021;50.882;4.326;2023-02-23T17:46:33;12.30;99.90
17795;DHT22;9021;50.882;4.326;2023-02-23T17:49:00;12.30;99.90
17795;DHT22;9021;50.882;4.326;2023-02-23T17:51:26;12.30;99.90
17795;DHT22;9021;50.882;4.326;2023-02-23T17:53:52;12.30;99.90
17795;DHT22;9021;50.882;4.326;2023-02-23T17:56:17;12.20;99.90
17795;DHT22;9021;50.882;4.326;2023-02-23T17:58:45;12.20;99.90
17795;DHT22;9021;50.882;4.326;2023-02-23T18:01:11;12.20;99.90
17795;DHT22;9021;50.882;4.326;2023-02-23T18:03:37;12.30;99.90
17795;DHT22;9021;50.882;4.326;2023-02-23T18:06:05;12.20;99.90
17795;DHT22;9021;50.882;4.326;2023-02-23T18:08:31;12.20;99.90
17795;DHT22;9021;50.882;4.326;2023-02-23T18:10:57;12.10;99.90
17795;DHT22;9021;50.882;4.326;2023-02-23T18:13:24;12.10;99.90
17795;DHT22;9021;50.882;4.326;2023-02-23T18:15:51;11.90;99.90
17795;DHT22;9021;50.882;4.326;2023-02-23T18:18:17;12.00;99.90
17795;DHT22;9021;50.882;4.326;2023-02-23T18:20:57;12.20;99.90
17795;DHT22;9021;50.882;4.326;2023-02-23T18:23:25;12.10;99.90
17795;DHT22;9021;50.882;4.326;2023-02-23T18:25:53;12.10;99.90